Wetterdaten: Woche 21.03.16 - 27.03.16 (KW12)
Datum Zeit Temp. A. Feuchte A. Luftdruck Regen Wind Richtung Sonnenschein ET UV Solar Taupunkt Windchill Windben Empfang
21.03.2016 00:00 4,0 C 81 % 1015,8 hPa 0,0 l/m 7,4 km/h (2 Bft) W 0,00 h 0,000 mm 0,0 UV-I 0 W/m 1,1 C 2,9 C 11,6 km/h (2 Bft) 96,27 %
21.03.2016 01:00 3,7 C 81 % 1016,3 hPa 0,0 l/m 9,0 km/h (2 Bft) W-SW 0,00 h 0,025 mm 0,0 UV-I 0 W/m 0,8 C 1,5 C 13,2 km/h (3 Bft) 98,32 %
21.03.2016 02:00 3,3 C 80 % 1016,4 hPa 0,0 l/m 8,0 km/h (2 Bft) W-SW 0,00 h 0,026 mm 0,0 UV-I 0 W/m 0,2 C 1,7 C 11,6 km/h (2 Bft) 99,08 %
21.03.2016 03:00 3,2 C 80 % 1016,4 hPa 0,0 l/m 7,8 km/h (2 Bft) SW 0,00 h 0,025 mm 0,0 UV-I 0 W/m 0,0 C 1,7 C 11,5 km/h (2 Bft) 98,62 %
21.03.2016 04:00 3,2 C 80 % 1016,3 hPa 0,0 l/m 9,8 km/h (2 Bft) W-SW 0,00 h 0,026 mm 0,0 UV-I 0 W/m 0,1 C 0,3 C 14,1 km/h (3 Bft) 98,99 %
21.03.2016 05:00 3,1 C 81 % 1016,7 hPa 0,0 l/m 8,4 km/h (2 Bft) W-SW 0,00 h 0,025 mm 0,0 UV-I 0 W/m 0,2 C 1,2 C 12,3 km/h (3 Bft) 98,32 %
21.03.2016 06:00 3,1 C 82 % 1017,2 hPa 0,0 l/m 5,9 km/h (2 Bft) W-SW 0,00 h 0,025 mm 0,0 UV-I 11 W/m 0,4 C 2,7 C 8,7 km/h (2 Bft) 99,28 %
21.03.2016 07:00 3,3 C 82 % 1017,5 hPa 0,0 l/m 4,8 km/h (1 Bft) W-SW 0,00 h 0,026 mm 0,0 UV-I 41 W/m 0,6 C 3,2 C 6,7 km/h (2 Bft) 98,06 %
21.03.2016 08:00 3,9 C 80 % 1017,7 hPa 0,0 l/m 6,2 km/h (2 Bft) W 0,00 h 0,025 mm 0,5 UV-I 108 W/m 0,8 C 3,3 C 9,2 km/h (2 Bft) 99,21 %
21.03.2016 09:00 4,9 C 75 % 1017,8 hPa 0,0 l/m 7,7 km/h (2 Bft) W-SW 0,32 h 0,051 mm 1,0 UV-I 276 W/m 0,9 C 3,6 C 11,4 km/h (2 Bft) 98,34 %
21.03.2016 10:00 5,7 C 72 % 1017,8 hPa 0,0 l/m 6,8 km/h (2 Bft) W-SW 0,52 h 0,127 mm 1,5 UV-I 344 W/m 1,0 C 4,7 C 10,4 km/h (2 Bft) 98,88 %
21.03.2016 11:00 6,7 C 68 % 1017,4 hPa 0,0 l/m 7,4 km/h (2 Bft) W-SW 0,58 h 0,152 mm 1,6 UV-I 370 W/m 1,3 C 5,4 C 12,0 km/h (2 Bft) 98,92 %
21.03.2016 12:00 7,8 C 63 % 1016,6 hPa 0,0 l/m 9,2 km/h (2 Bft) W-SW 0,90 h 0,178 mm 2,4 UV-I 605 W/m 1,3 C 5,7 C 14,2 km/h (3 Bft) 98,41 %
21.03.2016 13:00 8,7 C 61 % 1015,7 hPa 0,0 l/m 9,9 km/h (2 Bft) W-SW 0,95 h 0,280 mm 2,1 UV-I 595 W/m 1,6 C 6,3 C 14,6 km/h (3 Bft) 99,11 %
21.03.2016 14:00 9,2 C 59 % 1014,9 hPa 0,0 l/m 6,9 km/h (2 Bft) W 0,52 h 0,304 mm 1,2 UV-I 351 W/m 1,5 C 8,1 C 11,1 km/h (2 Bft) 98,39 %
21.03.2016 15:00 9,0 C 60 % 1014,4 hPa 0,0 l/m 5,2 km/h (1 Bft) W-NW 0,13 h 0,204 mm 0,6 UV-I 191 W/m 1,7 C 8,5 C 8,9 km/h (2 Bft) 98,89 %
21.03.2016 16:00 8,8 C 60 % 1014,2 hPa 0,0 l/m 5,9 km/h (2 Bft) W 0,02 h 0,101 mm 0,0 UV-I 121 W/m 1,6 C 8,3 C 9,9 km/h (2 Bft) 98,32 %
21.03.2016 17:00 8,4 C 60 % 1014,3 hPa 0,0 l/m 3,9 km/h (1 Bft) W 0,00 h 0,076 mm 0,0 UV-I 37 W/m 1,1 C 8,3 C 7,1 km/h (2 Bft) 99,21 %
21.03.2016 18:00 7,2 C 64 % 1014,3 hPa 0,0 l/m 4,3 km/h (1 Bft) W 0,10 h 0,026 mm 0,0 UV-I 10 W/m 0,9 C 7,2 C 6,1 km/h (2 Bft) 98,12 %
21.03.2016 19:00 5,9 C 70 % 1014,5 hPa 0,0 l/m 5,6 km/h (1 Bft) S-SW 0,00 h 0,025 mm 0,0 UV-I 0 W/m 0,9 C 5,8 C 7,3 km/h (2 Bft) 99,31 %
21.03.2016 20:00 5,6 C 73 % 1014,6 hPa 0,0 l/m 7,0 km/h (2 Bft) S-SW 0,00 h 0,026 mm 0,0 UV-I 0 W/m 1,2 C 4,9 C 9,9 km/h (2 Bft) 98,24 %
21.03.2016 21:00 5,5 C 76 % 1014,5 hPa 0,0 l/m 8,3 km/h (2 Bft) SW 0,00 h 0,025 mm 0,0 UV-I 0 W/m 1,7 C 3,9 C 12,1 km/h (2 Bft) 99,59 %
21.03.2016 22:00 5,2 C 79 % 1014,3 hPa 0,0 l/m 10,9 km/h (2 Bft) SW 0,00 h 0,025 mm 0,0 UV-I 0 W/m 1,8 C 1,7 C 15,2 km/h (3 Bft) 97,85 %
21.03.2016 23:00 5,3 C 78 % 1014,2 hPa 0,0 l/m 8,7 km/h (2 Bft) W-SW 0,00 h 0,026 mm 0,0 UV-I 0 W/m 1,8 C 3,4 C 12,4 km/h (3 Bft) 99,66 %
22.03.2016 00:00 5,2 C 80 % 1013,9 hPa 0,0 l/m 6,8 km/h (2 Bft) W-SW 0,00 h 0,000 mm 0,0 UV-I 0 W/m 2,0 C 4,7 C 9,5 km/h (2 Bft) 97,84 %
22.03.2016 01:00 5,3 C 79 % 1013,5 hPa 0,0 l/m 7,4 km/h (2 Bft) W-SW 0,00 h 0,025 mm 0,0 UV-I 0 W/m 2,1 C 4,3 C 10,4 km/h (2 Bft) 99,24 %
22.03.2016 02:00 5,1 C 80 % 1013,0 hPa 0,0 l/m 8,2 km/h (2 Bft) W-SW 0,00 h 0,026 mm 0,0 UV-I 0 W/m 1,9 C 3,6 C 11,7 km/h (2 Bft) 97,72 %
22.03.2016 03:00 4,9 C 81 % 1012,6 hPa 0,0 l/m 10,7 km/h (2 Bft) SW 0,00 h 0,025 mm 0,0 UV-I 0 W/m 1,9 C 1,7 C 15,4 km/h (3 Bft) 99,46 %
22.03.2016 04:00 4,8 C 82 % 1012,3 hPa 0,0 l/m 13,7 km/h (3 Bft) SW 0,00 h 0,026 mm 0,0 UV-I 0 W/m 2,0 C -0,4 C 18,7 km/h (3 Bft) 97,87 %
22.03.2016 05:00 4,5 C 83 % 1012,5 hPa 0,0 l/m 5,6 km/h (1 Bft) W-SW 0,00 h 0,025 mm 0,0 UV-I 0 W/m 1,8 C 4,4 C 8,1 km/h (2 Bft) 99,00 %
22.03.2016 06:00 4,4 C 84 % 1012,5 hPa 0,0 l/m 7,1 km/h (2 Bft) SW 0,00 h 0,000 mm 0,0 UV-I 17 W/m 1,9 C 3,5 C 10,0 km/h (2 Bft) 98,15 %
22.03.2016 07:00 4,9 C 83 % 1012,5 hPa 0,0 l/m 9,7 km/h (2 Bft) SW 0,00 h 0,025 mm 0,0 UV-I 72 W/m 2,2 C 2,2 C 13,7 km/h (3 Bft) 99,30 %
22.03.2016 08:00 5,9 C 78 % 1012,5 hPa 0,0 l/m 9,7 km/h (2 Bft) W-SW 0,00 h 0,051 mm 0,6 UV-I 163 W/m 2,3 C 3,3 C 14,3 km/h (3 Bft) 98,10 %
22.03.2016 09:00 6,9 C 73 % 1012,3 hPa 0,0 l/m 11,9 km/h (2 Bft) W-SW 0,30 h 0,076 mm 1,0 UV-I 262 W/m 2,4 C 3,1 C 16,8 km/h (3 Bft) 99,15 %
22.03.2016 10:00 7,7 C 68 % 1011,8 hPa 0,0 l/m 11,0 km/h (2 Bft) W-SW 0,30 h 0,153 mm 1,2 UV-I 302 W/m 2,1 C 4,5 C 16,1 km/h (3 Bft) 98,27 %
22.03.2016 11:00 8,6 C 65 % 1011,2 hPa 0,0 l/m 6,7 km/h (2 Bft) W 0,53 h 0,178 mm 2,1 UV-I 503 W/m 2,4 C 7,6 C 11,4 km/h (2 Bft) 99,53 %
22.03.2016 12:00 7,8 C 67 % 1010,9 hPa 0,0 l/m 7,6 km/h (2 Bft) W-NW 0,20 h 0,254 mm 1,0 UV-I 203 W/m 2,1 C 6,4 C 13,0 km/h (3 Bft) 98,04 %
22.03.2016 13:00 8,6 C 65 % 1010,6 hPa 0,0 l/m 5,9 km/h (2 Bft) W-NW 0,32 h 0,127 mm 1,3 UV-I 304 W/m 2,4 C 8,0 C 11,4 km/h (2 Bft) 99,26 %
22.03.2016 14:00 8,2 C 66 % 1010,4 hPa 0,0 l/m 5,7 km/h (1 Bft) W 0,00 h 0,152 mm 0,8 UV-I 184 W/m 2,3 C 7,7 C 10,0 km/h (2 Bft) 98,60 %
22.03.2016 15:00 7,8 C 65 % 1010,2 hPa 0,0 l/m 6,9 km/h (2 Bft) W 0,00 h 0,102 mm 0,5 UV-I 116 W/m 1,5 C 6,9 C 10,9 km/h (2 Bft) 99,20 %
22.03.2016 16:00 7,4 C 65 % 1009,9 hPa 0,0 l/m 6,8 km/h (2 Bft) W-SW 0,00 h 0,076 mm 0,0 UV-I 59 W/m 1,2 C 6,6 C 10,4 km/h (2 Bft) 98,33 %
22.03.2016 17:00 6,7 C 70 % 1009,9 hPa 0,0 l/m 5,0 km/h (1 Bft) SW 0,00 h 0,051 mm 0,0 UV-I 37 W/m 1,6 C 6,7 C 7,1 km/h (2 Bft) 98,83 %
22.03.2016 18:00 6,2 C 74 % 1009,8 hPa 0,0 l/m 2,6 km/h (1 Bft) SW 0,00 h 0,025 mm 0,0 UV-I 6 W/m 1,9 C 6,2 C 4,0 km/h (1 Bft) 98,24 %
22.03.2016 19:00 5,3 C 81 % 1010,0 hPa 0,0 l/m 0,8 km/h (0 Bft) W 0,00 h 0,000 mm 0,0 UV-I 0 W/m 2,3 C 5,3 C 1,5 km/h (1 Bft) 99,16 %
22.03.2016 20:00 5,0 C 83 % 1010,1 hPa 0,0 l/m 0,5 km/h (0 Bft) W 0,00 h 0,000 mm 0,0 UV-I 0 W/m 2,4 C 5,0 C 1,1 km/h (1 Bft) 97,78 %
22.03.2016 21:00 4,8 C 84 % 1009,8 hPa 0,0 l/m 0,4 km/h (0 Bft) W 0,00 h 0,000 mm 0,0 UV-I 0 W/m 2,4 C 4,8 C 1,0 km/h (0 Bft) 99,65 %
22.03.2016 22:00 4,6 C 85 % 1009,3 hPa 0,0 l/m 0,7 km/h (0 Bft) W 0,00 h 0,000 mm 0,0 UV-I 0 W/m 2,3 C 4,6 C 1,5 km/h (1 Bft) 98,29 %
22.03.2016 23:00 4,3 C 87 % 1009,0 hPa 0,0 l/m 0,3 km/h (0 Bft) N-NW 0,00 h 0,000 mm 0,0 UV-I 0 W/m 2,3 C 4,3 C 0,8 km/h (0 Bft) 99,66 %
23.03.2016 00:00 4,3 C 87 % 1008,6 hPa 0,0 l/m 0,7 km/h (0 Bft) O-SO 0,00 h 0,000 mm 0,0 UV-I 0 W/m 2,3 C 4,3 C 1,6 km/h (1 Bft) 97,84 %
23.03.2016 01:00 3,9 C 89 % 1008,1 hPa 0,0 l/m 0,8 km/h (0 Bft) O-SO 0,00 h 0,000 mm 0,0 UV-I 0 W/m 2,2 C 3,9 C 1,3 km/h (1 Bft) 99,24 %
23.03.2016 02:00 3,8 C 90 % 1007,3 hPa 0,0 l/m 0,4 km/h (0 Bft) O-SO 0,00 h 0,000 mm 0,0 UV-I 0 W/m 2,2 C 3,8 C 0,9 km/h (0 Bft) 98,04 %
23.03.2016 03:00 3,5 C 90 % 1006,9 hPa 0,0 l/m 0,3 km/h (0 Bft) O-SO 0,00 h 0,000 mm 0,0 UV-I 0 W/m 2,1 C 3,5 C 0,8 km/h (0 Bft) 99,58 %
23.03.2016 04:00 3,1 C 92 % 1006,6 hPa 0,0 l/m 0,0 km/h (0 Bft) N 0,00 h 0,000 mm 0,0 UV-I 0 W/m 2,0 C 3,1 C 0,1 km/h (0 Bft) 98,20 %
23.03.2016 05:00 3,2 C 91 % 1006,5 hPa 0,0 l/m 1,1 km/h (1 Bft) O-SO 0,00 h 0,000 mm 0,0 UV-I 0 W/m 1,9 C 3,2 C 1,8 km/h (1 Bft) 99,47 %
23.03.2016 06:00 3,1 C 92 % 1006,6 hPa 0,0 l/m 0,0 km/h (0 Bft) N 0,00 h 0,000 mm 0,0 UV-I 22 W/m 2,0 C 3,1 C 0,3 km/h (0 Bft) 98,04 %
23.03.2016 07:00 3,7 C 90 % 1006,9 hPa 0,0 l/m 1,0 km/h (0 Bft) O-SO 0,00 h 0,000 mm 0,0 UV-I 82 W/m 2,2 C 3,7 C 2,1 km/h (1 Bft) 99,50 %
23.03.2016 08:00 4,7 C 85 % 1007,0 hPa 0,0 l/m 3,3 km/h (1 Bft) NO 0,05 h 0,025 mm 0,6 UV-I 177 W/m 2,4 C 4,7 C 5,1 km/h (1 Bft) 98,02 %
23.03.2016 09:00 5,6 C 79 % 1006,9 hPa 0,0 l/m 7,7 km/h (2 Bft) O-NO 0,37 h 0,077 mm 1,0 UV-I 289 W/m 2,3 C 4,2 C 11,8 km/h (2 Bft) 99,39 %
23.03.2016 10:00 6,5 C 76 % 1006,6 hPa 0,0 l/m 6,3 km/h (2 Bft) O-NO 0,87 h 0,127 mm 1,9 UV-I 487 W/m 2,5 C 5,8 C 9,7 km/h (2 Bft) 98,13 %
23.03.2016 11:00 7,7 C 66 % 1006,2 hPa 0,0 l/m 2,8 km/h (1 Bft) N-NO 0,95 h 0,228 mm 2,0 UV-I 481 W/m 1,8 C 7,7 C 5,0 km/h (1 Bft) 98,80 %
23.03.2016 12:00 8,2 C 60 % 1005,9 hPa 0,0 l/m 2,4 km/h (1 Bft) W-NW 0,05 h 0,229 mm 1,4 UV-I 305 W/m 0,9 C 8,2 C 4,6 km/h (1 Bft) 98,59 %
23.03.2016 13:00 7,9 C 63 % 1005,6 hPa 0,0 l/m 3,5 km/h (1 Bft) N-NO 0,02 h 0,152 mm 1,1 UV-I 212 W/m 1,3 C 7,7 C 6,3 km/h (2 Bft) 99,16 %
23.03.2016 14:00 6,4 C 68 % 1005,5 hPa 0,0 l/m 7,6 km/h (2 Bft) S-SO 0,00 h 0,102 mm 0,0 UV-I 68 W/m 1,0 C 4,7 C 10,9 km/h (2 Bft) 98,17 %
23.03.2016 15:00 5,1 C 78 % 1005,6 hPa 1,2 l/m 10,1 km/h (2 Bft) O-SO 0,00 h 0,051 mm 0,0 UV-I 53 W/m 1,6 C 2,0 C 13,5 km/h (3 Bft) 99,01 %
23.03.2016 16:00 5,3 C 82 % 1005,7 hPa 0,0 l/m 5,5 km/h (1 Bft) S-SW 0,00 h 0,050 mm 0,0 UV-I 62 W/m 2,5 C 4,9 C 8,3 km/h (2 Bft) 99,10 %
23.03.2016 17:00 5,5 C 80 % 1006,1 hPa 0,0 l/m 6,9 km/h (2 Bft) S-SW 0,00 h 0,026 mm 0,0 UV-I 18 W/m 2,4 C 4,7 C 10,2 km/h (2 Bft) 98,93 %
23.03.2016 18:00 5,1 C 81 % 1006,5 hPa 0,0 l/m 8,5 km/h (2 Bft) S-SW 0,00 h 0,025 mm 0,0 UV-I 5 W/m 2,1 C 3,2 C 12,8 km/h (3 Bft) 98,36 %
23.03.2016 19:00 4,7 C 83 % 1006,9 hPa 0,0 l/m 9,7 km/h (2 Bft) SW 0,00 h 0,026 mm 0,0 UV-I 0 W/m 2,1 C 2,1 C 14,7 km/h (3 Bft) 99,37 %
23.03.2016 20:00 4,4 C 85 % 1007,1 hPa 0,0 l/m 11,1 km/h (2 Bft) W-SW 0,00 h 0,025 mm 0,0 UV-I 0 W/m 2,1 C 0,8 C 15,7 km/h (3 Bft) 98,14 %
23.03.2016 21:00 4,5 C 86 % 1007,1 hPa 0,0 l/m 12,7 km/h (3 Bft) SW 0,00 h 0,025 mm 0,0 UV-I 0 W/m 2,3 C -0,2 C 17,9 km/h (3 Bft) 99,36 %
23.03.2016 22:00 4,4 C 86 % 1007,3 hPa 0,0 l/m 12,7 km/h (3 Bft) SW 0,00 h 0,026 mm 0,0 UV-I 0 W/m 2,2 C -0,3 C 17,9 km/h (3 Bft) 97,77 %
23.03.2016 23:00 4,3 C 86 % 1007,3 hPa 0,0 l/m 11,5 km/h (2 Bft) SW 0,00 h 0,025 mm 0,0 UV-I 0 W/m 2,2 C 0,4 C 16,0 km/h (3 Bft) 99,05 %
24.03.2016 00:00 4,3 C 86 % 1007,3 hPa 0,2 l/m 11,1 km/h (2 Bft) W-SW 0,00 h 0,000 mm 0,0 UV-I 0 W/m 2,2 C 0,6 C 15,4 km/h (3 Bft) 95,61 %
24.03.2016 01:00 4,3 C 87 % 1007,8 hPa 0,0 l/m 6,2 km/h (2 Bft) NW 0,00 h 0,025 mm 0,0 UV-I 0 W/m 2,3 C 3,2 C 9,9 km/h (2 Bft) 99,35 %
24.03.2016 02:00 3,8 C 87 % 1008,0 hPa 0,0 l/m 2,9 km/h (1 Bft) NW 0,00 h 0,000 mm 0,0 UV-I 0 W/m 1,9 C 3,8 C 4,2 km/h (1 Bft) 97,73 %
24.03.2016 03:00 4,3 C 86 % 1008,2 hPa 0,0 l/m 8,6 km/h (2 Bft) W 0,00 h 0,000 mm 0,0 UV-I 0 W/m 2,2 C 2,3 C 12,9 km/h (3 Bft) 99,28 %
24.03.2016 04:00 4,2 C 84 % 1008,6 hPa 0,0 l/m 10,7 km/h (2 Bft) W 0,00 h 0,000 mm 0,0 UV-I 0 W/m 1,8 C 0,8 C 16,2 km/h (3 Bft) 98,34 %
24.03.2016 05:00 3,9 C 84 % 1009,4 hPa 0,0 l/m 13,3 km/h (3 Bft) W 0,00 h 0,026 mm 0,0 UV-I 0 W/m 1,6 C -1,1 C 18,8 km/h (3 Bft) 99,35 %
24.03.2016 06:00 3,8 C 85 % 1010,1 hPa 0,0 l/m 10,3 km/h (2 Bft) W 0,00 h 0,025 mm 0,0 UV-I 12 W/m 1,5 C 0,7 C 14,9 km/h (3 Bft) 98,01 %
24.03.2016 07:00 4,0 C 85 % 1010,7 hPa 0,0 l/m 9,3 km/h (2 Bft) W-SW 0,00 h 0,026 mm 0,0 UV-I 44 W/m 1,7 C 1,5 C 13,7 km/h (3 Bft) 98,96 %
24.03.2016 08:00 4,5 C 84 % 1011,4 hPa 0,0 l/m 9,2 km/h (2 Bft) W 0,00 h 0,025 mm 0,3 UV-I 108 W/m 2,1 C 2,1 C 13,7 km/h (3 Bft) 98,02 %
24.03.2016 09:00 5,2 C 81 % 1012,1 hPa 0,0 l/m 6,0 km/h (2 Bft) W 0,00 h 0,051 mm 0,7 UV-I 139 W/m 2,2 C 4,6 C 10,5 km/h (2 Bft) 99,33 %
24.03.2016 10:00 6,1 C 76 % 1012,4 hPa 0,0 l/m 6,1 km/h (2 Bft) W-NW 0,02 h 0,076 mm 1,0 UV-I 233 W/m 2,1 C 5,4 C 11,1 km/h (2 Bft) 98,02 %
24.03.2016 11:00 7,2 C 68 % 1012,4 hPa 0,0 l/m 6,8 km/h (2 Bft) W 0,23 h 0,102 mm 1,5 UV-I 362 W/m 1,7 C 6,1 C 11,9 km/h (2 Bft) 99,29 %
24.03.2016 12:00 6,6 C 71 % 1012,6 hPa 0,0 l/m 6,1 km/h (2 Bft) NW 0,02 h 0,177 mm 1,3 UV-I 273 W/m 1,8 C 6,0 C 11,4 km/h (2 Bft) 97,96 %
24.03.2016 13:00 8,3 C 58 % 1012,5 hPa 0,0 l/m 11,1 km/h (2 Bft) W-SW 0,42 h 0,127 mm 1,6 UV-I 460 W/m 0,6 C 5,4 C 16,8 km/h (3 Bft) 99,38 %
24.03.2016 14:00 8,3 C 55 % 1012,7 hPa 0,0 l/m 15,5 km/h (3 Bft) W-SW 0,33 h 0,254 mm 1,0 UV-I 337 W/m -0,1 C 3,0 C 22,5 km/h (4 Bft) 98,21 %
24.03.2016 15:00 7,7 C 57 % 1013,1 hPa 0,0 l/m 12,2 km/h (2 Bft) W-SW 0,00 h 0,204 mm 0,7 UV-I 145 W/m -0,2 C 4,0 C 18,9 km/h (3 Bft) 99,57 %
24.03.2016 16:00 7,2 C 62 % 1013,4 hPa 0,0 l/m 5,5 km/h (1 Bft) W 0,00 h 0,101 mm 0,0 UV-I 84 W/m 0,3 C 6,8 C 8,9 km/h (2 Bft) 97,77 %
24.03.2016 17:00 7,2 C 62 % 1013,8 hPa 0,0 l/m 4,2 km/h (1 Bft) W 0,00 h 0,051 mm 0,0 UV-I 38 W/m 0,5 C 7,0 C 6,5 km/h (2 Bft) 99,41 %
24.03.2016 18:00 6,4 C 71 % 1014,5 hPa 0,0 l/m 6,3 km/h (2 Bft) W-SW 0,00 h 0,025 mm 0,0 UV-I 6 W/m 1,6 C 5,9 C 9,3 km/h (2 Bft) 98,09 %
24.03.2016 19:00 5,9 C 72 % 1015,2 hPa 0,0 l/m 8,8 km/h (2 Bft) SW 0,00 h 0,026 mm 0,0 UV-I 0 W/m 1,3 C 3,9 C 12,6 km/h (3 Bft) 99,29 %
24.03.2016 20:00 5,6 C 73 % 1015,7 hPa 0,0 l/m 10,5 km/h (2 Bft) SW 0,00 h 0,025 mm 0,0 UV-I 0 W/m 1,1 C 2,5 C 14,9 km/h (3 Bft) 97,79 %
24.03.2016 21:00 5,1 C 74 % 1015,8 hPa 0,0 l/m 10,8 km/h (2 Bft) SW 0,00 h 0,026 mm 0,0 UV-I 0 W/m 0,9 C 1,7 C 15,3 km/h (3 Bft) 99,43 %
24.03.2016 22:00 4,7 C 76 % 1015,5 hPa 0,0 l/m 6,3 km/h (2 Bft) S-SW 0,00 h 0,025 mm 0,0 UV-I 0 W/m 0,9 C 4,4 C 9,5 km/h (2 Bft) 98,23 %
24.03.2016 23:00 4,5 C 77 % 1015,4 hPa 0,0 l/m 5,9 km/h (2 Bft) SW 0,00 h 0,025 mm 0,0 UV-I 0 W/m 0,9 C 4,3 C 8,6 km/h (2 Bft) 98,94 %
25.03.2016 00:00 4,3 C 79 % 1015,3 hPa 0,0 l/m 6,0 km/h (2 Bft) SW 0,00 h 0,000 mm 0,0 UV-I 0 W/m 1,0 C 4,0 C 8,4 km/h (2 Bft) 98,04 %
25.03.2016 01:00 4,2 C 81 % 1015,4 hPa 0,0 l/m 5,6 km/h (1 Bft) SW 0,00 h 0,025 mm 0,0 UV-I 0 W/m 1,2 C 4,0 C 7,9 km/h (2 Bft) 99,03 %
25.03.2016 02:00 4,6 C 78 % 1015,2 hPa 0,0 l/m 6,4 km/h (2 Bft) SW 0,00 h 0,000 mm 0,0 UV-I 0 W/m 1,1 C 4,0 C 9,3 km/h (2 Bft) 97,83 %
25.03.2016 03:00 4,3 C 80 % 1015,1 hPa 0,0 l/m 3,6 km/h (1 Bft) W 0,00 h 0,026 mm 0,0 UV-I 0 W/m 1,2 C 4,1 C 5,5 km/h (1 Bft) 99,26 %
25.03.2016 04:00 4,2 C 81 % 1015,1 hPa 0,0 l/m 3,4 km/h (1 Bft) W 0,00 h 0,000 mm 0,0 UV-I 0 W/m 1,2 C 4,2 C 4,9 km/h (1 Bft) 98,12 %
25.03.2016 05:00 3,8 C 84 % 1015,0 hPa 0,0 l/m 0,5 km/h (0 Bft) W 0,00 h 0,000 mm 0,0 UV-I 0 W/m 1,3 C 3,8 C 1,0 km/h (0 Bft) 98,80 %
25.03.2016 06:00 3,6 C 85 % 1015,0 hPa 0,0 l/m 1,1 km/h (1 Bft) W 0,00 h 0,000 mm 0,0 UV-I 12 W/m 1,4 C 3,6 C 2,3 km/h (1 Bft) 98,15 %
25.03.2016 07:00 4,1 C 85 % 1015,3 hPa 0,0 l/m 0,8 km/h (0 Bft) W 0,00 h 0,000 mm 0,0 UV-I 38 W/m 1,9 C 4,1 C 1,9 km/h (1 Bft) 98,83 %
25.03.2016 08:00 5,0 C 82 % 1015,4 hPa 0,0 l/m 2,2 km/h (1 Bft) S 0,00 h 0,025 mm 0,0 UV-I 90 W/m 2,3 C 5,0 C 3,9 km/h (1 Bft) 98,25 %
25.03.2016 09:00 6,2 C 76 % 1015,3 hPa 0,0 l/m 4,3 km/h (1 Bft) S-SW 0,00 h 0,051 mm 0,7 UV-I 145 W/m 2,3 C 6,1 C 6,3 km/h (2 Bft) 98,57 %
25.03.2016 10:00 7,2 C 71 % 1015,0 hPa 0,0 l/m 7,8 km/h (2 Bft) SW 0,23 h 0,076 mm 1,1 UV-I 244 W/m 2,4 C 6,0 C 11,5 km/h (2 Bft) 98,04 %
25.03.2016 11:00 8,8 C 64 % 1014,6 hPa 0,0 l/m 10,5 km/h (2 Bft) W-SW 0,48 h 0,127 mm 1,7 UV-I 369 W/m 2,3 C 6,0 C 15,5 km/h (3 Bft) 99,18 %
25.03.2016 12:00 8,6 C 64 % 1014,2 hPa 0,0 l/m 12,9 km/h (3 Bft) W-SW 0,00 h 0,203 mm 1,1 UV-I 222 W/m 2,2 C 4,6 C 18,6 km/h (3 Bft) 98,08 %
25.03.2016 13:00 8,3 C 69 % 1013,9 hPa 0,0 l/m 14,6 km/h (3 Bft) W-SW 0,00 h 0,153 mm 0,8 UV-I 144 W/m 3,0 C 3,4 C 21,2 km/h (4 Bft) 99,07 %
25.03.2016 14:00 7,9 C 76 % 1013,7 hPa 0,0 l/m 12,0 km/h (2 Bft) W-SW 0,00 h 0,101 mm 0,7 UV-I 155 W/m 3,8 C 4,2 C 17,4 km/h (3 Bft) 98,07 %
25.03.2016 15:00 7,5 C 79 % 1013,6 hPa 0,0 l/m 8,3 km/h (2 Bft) W-SW 0,00 h 0,102 mm 0,5 UV-I 124 W/m 4,1 C 6,0 C 12,2 km/h (2 Bft) 99,24 %
25.03.2016 16:00 6,5 C 88 % 1013,5 hPa 0,4 l/m 7,6 km/h (2 Bft) W-SW 0,00 h 0,076 mm 0,0 UV-I 46 W/m 4,6 C 5,1 C 11,2 km/h (2 Bft) 97,98 %
25.03.2016 17:00 6,3 C 91 % 1013,5 hPa 0,2 l/m 5,6 km/h (1 Bft) SW 0,00 h 0,026 mm 0,0 UV-I 32 W/m 4,9 C 6,0 C 7,9 km/h (2 Bft) 99,46 %
25.03.2016 18:00 6,0 C 93 % 1013,6 hPa 0,6 l/m 8,1 km/h (2 Bft) SW 0,00 h 0,025 mm 0,0 UV-I 5 W/m 4,9 C 4,3 C 11,8 km/h (2 Bft) 97,67 %
25.03.2016 19:00 5,7 C 94 % 1014,1 hPa 0,6 l/m 8,4 km/h (2 Bft) SW 0,00 h 0,000 mm 0,0 UV-I 0 W/m 4,7 C 4,0 C 12,6 km/h (3 Bft) 99,37 %
25.03.2016 20:00 5,4 C 93 % 1014,5 hPa 0,8 l/m 9,0 km/h (2 Bft) SW 0,00 h 0,000 mm 0,0 UV-I 0 W/m 4,4 C 3,2 C 12,9 km/h (3 Bft) 98,18 %
25.03.2016 21:00 5,2 C 94 % 1014,9 hPa 0,6 l/m 12,8 km/h (3 Bft) W-SW 0,00 h 0,000 mm 0,0 UV-I 0 W/m 4,4 C 0,8 C 17,8 km/h (3 Bft) 99,50 %
25.03.2016 22:00 5,0 C 93 % 1015,1 hPa 0,4 l/m 8,2 km/h (2 Bft) W-SW 0,00 h 0,000 mm 0,0 UV-I 0 W/m 4,0 C 3,4 C 11,8 km/h (2 Bft) 97,91 %
25.03.2016 23:00 5,0 C 94 % 1015,4 hPa 0,2 l/m 9,4 km/h (2 Bft) SW 0,00 h 0,000 mm 0,0 UV-I 0 W/m 4,2 C 2,6 C 13,4 km/h (3 Bft) 98,89 %
26.03.2016 00:00 5,0 C 94 % 1015,6 hPa 0,0 l/m 8,4 km/h (2 Bft) SW 0,00 h 0,000 mm 0,0 UV-I 0 W/m 4,1 C 3,3 C 12,1 km/h (2 Bft) 96,38 %
26.03.2016 01:00 5,0 C 94 % 1015,8 hPa 0,4 l/m 9,9 km/h (2 Bft) W-SW 0,00 h 0,000 mm 0,0 UV-I 0 W/m 4,1 C 2,2 C 14,3 km/h (3 Bft) 98,76 %
26.03.2016 02:00 4,8 C 94 % 1016,2 hPa 0,4 l/m 10,0 km/h (2 Bft) W-SW 0,00 h 0,000 mm 0,0 UV-I 0 W/m 3,9 C 2,0 C 14,2 km/h (3 Bft) 97,94 %
26.03.2016 03:00 4,5 C 94 % 1016,6 hPa 0,8 l/m 10,9 km/h (2 Bft) W-SW 0,00 h 0,000 mm 0,0 UV-I 0 W/m 3,6 C 1,0 C 15,2 km/h (3 Bft) 98,87 %
26.03.2016 04:00 4,2 C 94 % 1017,3 hPa 0,6 l/m 11,3 km/h (2 Bft) W-SW 0,00 h 0,000 mm 0,0 UV-I 0 W/m 3,4 C 0,3 C 15,4 km/h (3 Bft) 98,23 %
26.03.2016 05:00 4,1 C 95 % 1018,1 hPa 0,6 l/m 11,0 km/h (2 Bft) W-SW 0,00 h 0,000 mm 0,0 UV-I 0 W/m 3,3 C 0,4 C 16,0 km/h (3 Bft) 98,38 %
26.03.2016 06:00 3,8 C 95 % 1018,9 hPa 0,4 l/m 12,7 km/h (3 Bft) SW 0,00 h 0,000 mm 0,0 UV-I 15 W/m 3,1 C -0,9 C 18,2 km/h (3 Bft) 98,63 %
26.03.2016 07:00 3,8 C 94 % 1019,6 hPa 0,0 l/m 13,9 km/h (3 Bft) SW 0,00 h 0,000 mm 0,0 UV-I 74 W/m 2,9 C -1,6 C 20,1 km/h (4 Bft) 98,15 %
26.03.2016 08:00 4,1 C 93 % 1020,1 hPa 0,0 l/m 14,2 km/h (3 Bft) W-SW 0,00 h 0,025 mm 0,6 UV-I 130 W/m 3,1 C -1,4 C 20,3 km/h (4 Bft) 98,70 %
26.03.2016 09:00 5,0 C 91 % 1020,8 hPa 0,0 l/m 15,0 km/h (3 Bft) W-SW 0,07 h 0,051 mm 1,0 UV-I 229 W/m 3,6 C -0,9 C 21,7 km/h (4 Bft) 97,89 %
26.03.2016 10:00 5,7 C 89 % 1021,1 hPa 0,0 l/m 12,6 km/h (3 Bft) W-SW 0,00 h 0,102 mm 1,0 UV-I 194 W/m 4,0 C 1,3 C 18,0 km/h (3 Bft) 98,41 %
26.03.2016 11:00 5,9 C 88 % 1021,0 hPa 0,0 l/m 11,2 km/h (2 Bft) W-SW 0,00 h 0,101 mm 0,6 UV-I 91 W/m 4,1 C 2,5 C 16,3 km/h (3 Bft) 98,27 %
26.03.2016 12:00 6,0 C 90 % 1021,1 hPa 0,0 l/m 8,2 km/h (2 Bft) W-SW 0,00 h 0,051 mm 0,0 UV-I 55 W/m 4,4 C 4,2 C 11,6 km/h (2 Bft) 98,86 %
26.03.2016 13:00 6,5 C 89 % 1020,8 hPa 0,0 l/m 2,6 km/h (1 Bft) W 0,00 h 0,026 mm 0,7 UV-I 111 W/m 4,9 C 6,5 C 4,5 km/h (1 Bft) 98,14 %
26.03.2016 14:00 7,1 C 85 % 1020,6 hPa 0,0 l/m 4,2 km/h (1 Bft) W 0,00 h 0,050 mm 0,6 UV-I 123 W/m 4,7 C 7,0 C 7,1 km/h (2 Bft) 98,68 %
26.03.2016 15:00 7,3 C 85 % 1020,3 hPa 0,0 l/m 2,3 km/h (1 Bft) W 0,00 h 0,051 mm 0,5 UV-I 94 W/m 4,9 C 7,2 C 3,9 km/h (1 Bft) 97,60 %
26.03.2016 16:00 7,6 C 83 % 1019,9 hPa 0,0 l/m 1,6 km/h (1 Bft) S-SW 0,00 h 0,051 mm 0,0 UV-I 119 W/m 5,0 C 7,6 C 3,0 km/h (1 Bft) 99,40 %
26.03.2016 17:00 7,6 C 84 % 1019,8 hPa 0,0 l/m 1,2 km/h (1 Bft) W-SW 0,00 h 0,051 mm 0,0 UV-I 40 W/m 5,0 C 7,6 C 2,1 km/h (1 Bft) 97,84 %
26.03.2016 18:00 6,9 C 88 % 1019,6 hPa 0,0 l/m 1,8 km/h (1 Bft) O 0,02 h 0,025 mm 0,0 UV-I 9 W/m 5,1 C 6,9 C 2,9 km/h (1 Bft) 99,47 %
26.03.2016 19:00 4,9 C 93 % 1019,5 hPa 0,0 l/m 3,0 km/h (1 Bft) SO 0,00 h 0,000 mm 0,0 UV-I 0 W/m 4,0 C 4,9 C 4,5 km/h (1 Bft) 97,49 %
26.03.2016 20:00 4,3 C 95 % 1019,1 hPa 0,0 l/m 4,6 km/h (1 Bft) SO 0,00 h 0,000 mm 0,0 UV-I 0 W/m 3,6 C 4,2 C 7,4 km/h (2 Bft) 99,37 %
26.03.2016 21:00 3,5 C 95 % 1018,9 hPa 0,0 l/m 1,3 km/h (1 Bft) O-SO 0,00 h 0,000 mm 0,0 UV-I 0 W/m 2,8 C 3,5 C 2,7 km/h (1 Bft) 98,29 %
26.03.2016 22:00 2,5 C 96 % 1018,4 hPa 0,0 l/m 3,1 km/h (1 Bft) O-SO 0,00 h 0,000 mm 0,0 UV-I 0 W/m 2,0 C 2,5 C 5,2 km/h (1 Bft) 99,27 %
26.03.2016 23:00 1,9 C 96 % 1017,9 hPa 0,0 l/m 1,3 km/h (1 Bft) NO 0,00 h 0,000 mm 0,0 UV-I 0 W/m 1,4 C 1,9 C 2,3 km/h (1 Bft) 98,29 %
27.03.2016 00:00 1,6 C 97 % 1017,4 hPa 0,0 l/m 4,0 km/h (1 Bft) O-NO 0,00 h 0,000 mm 0,0 UV-I 0 W/m 1,2 C 1,6 C 5,5 km/h (1 Bft) 98,47 %
27.03.2016 01:00 1,3 C 97 % 1016,9 hPa 0,0 l/m 3,5 km/h (1 Bft) O-NO 0,00 h 0,000 mm 0,0 UV-I 0 W/m 0,8 C 1,3 C 4,9 km/h (1 Bft) 99,30 %
27.03.2016 03:00 0,2 C 97 % 1016,3 hPa 0,0 l/m 2,1 km/h (1 Bft) O-NO 0,00 h 0,000 mm 0,0 UV-I 0 W/m -0,3 C 0,2 C 3,1 km/h (1 Bft) 98,16 %
27.03.2016 04:00 -0,4 C 97 % 1015,7 hPa 0,0 l/m 4,4 km/h (1 Bft) NO 0,00 h 0,000 mm 0,0 UV-I 0 W/m -0,8 C -0,4 C 5,6 km/h (1 Bft) 99,36 %
27.03.2016 05:00 -0,3 C 98 % 1015,3 hPa 0,0 l/m 4,8 km/h (1 Bft) O-NO 0,00 h 0,000 mm 0,0 UV-I 0 W/m -0,6 C -0,6 C 6,6 km/h (2 Bft) 97,55 %
27.03.2016 06:00 -0,3 C 98 % 1014,8 hPa 0,0 l/m 5,3 km/h (1 Bft) O-NO 0,00 h 0,000 mm 0,0 UV-I 4 W/m -0,6 C -0,5 C 7,1 km/h (2 Bft) 98,94 %
27.03.2016 07:00 -0,2 C 98 % 1014,5 hPa 0,0 l/m 6,0 km/h (2 Bft) O-NO 0,00 h 0,000 mm 0,0 UV-I 25 W/m -0,5 C -0,5 C 8,2 km/h (2 Bft) 96,71 %
27.03.2016 08:00 0,0 C 98 % 1014,2 hPa 0,2 l/m 4,7 km/h (1 Bft) O-NO 0,00 h 0,000 mm 0,0 UV-I 107 W/m -0,3 C -0,1 C 6,7 km/h (2 Bft) 98,85 %
27.03.2016 09:00 1,5 C 98 % 1013,9 hPa 0,0 l/m 6,4 km/h (2 Bft) O-NO 0,20 h 0,025 mm 0,7 UV-I 205 W/m 1,2 C 0,9 C 9,2 km/h (2 Bft) 97,77 %
27.03.2016 10:00 3,6 C 97 % 1013,6 hPa 0,0 l/m 2,8 km/h (1 Bft) O-NO 0,57 h 0,077 mm 1,6 UV-I 393 W/m 3,1 C 3,6 C 4,7 km/h (1 Bft) 99,53 %
27.03.2016 11:00 7,0 C 86 % 1012,9 hPa 0,0 l/m 6,3 km/h (2 Bft) O-NO 1,00 h 0,152 mm 2,6 UV-I 636 W/m 4,9 C 6,3 C 9,9 km/h (2 Bft) 97,82 %
27.03.2016 12:00 9,4 C 78 % 1012,5 hPa 0,0 l/m 4,7 km/h (1 Bft) NO 1,00 h 0,279 mm 3,2 UV-I 698 W/m 5,9 C 9,1 C 7,2 km/h (2 Bft) 98,24 %
27.03.2016 13:00 11,6 C 68 % 1012,3 hPa 0,0 l/m 3,7 km/h (1 Bft) NO 1,00 h 0,331 mm 3,3 UV-I 689 W/m 6,0 C 11,5 C 6,2 km/h (2 Bft) 99,17 %
27.03.2016 14:00 12,7 C 62 % 1012,3 hPa 0,0 l/m 3,8 km/h (1 Bft) W-SW 1,00 h 0,330 mm 2,6 UV-I 544 W/m 5,6 C 12,5 C 6,3 km/h (2 Bft) 97,92 %
27.03.2016 15:00 13,0 C 62 % 1012,4 hPa 0,0 l/m 8,3 km/h (2 Bft) W-SW 0,65 h 0,279 mm 1,7 UV-I 391 W/m 5,9 C 11,7 C 12,2 km/h (2 Bft) 98,37 %
27.03.2016 16:00 13,4 C 61 % 1012,3 hPa 0,0 l/m 9,2 km/h (2 Bft) W-SW 1,00 h 0,229 mm 1,1 UV-I 357 W/m 6,0 C 11,7 C 13,6 km/h (3 Bft) 97,90 %
27.03.2016 17:00 13,6 C 57 % 1012,2 hPa 0,0 l/m 11,0 km/h (2 Bft) W 0,67 h 0,228 mm 0,6 UV-I 199 W/m 5,3 C 11,2 C 15,9 km/h (3 Bft) 98,69 %
27.03.2016 18:00 12,4 C 62 % 1012,2 hPa 0,0 l/m 9,9 km/h (2 Bft) W 0,00 h 0,153 mm 0,0 UV-I 50 W/m 5,3 C 10,4 C 14,5 km/h (3 Bft) 98,03 %
27.03.2016 19:00 11,2 C 68 % 1012,4 hPa 0,0 l/m 7,9 km/h (2 Bft) W-SW 0,00 h 0,076 mm 0,0 UV-I 12 W/m 5,4 C 10,1 C 11,4 km/h (2 Bft) 98,91 %
27.03.2016 20:00 10,2 C 72 % 1012,6 hPa 0,0 l/m 7,3 km/h (2 Bft) W-SW 0,00 h 0,025 mm 0,0 UV-I 0 W/m 5,5 C 9,4 C 10,1 km/h (2 Bft) 97,38 %
27.03.2016 21:00 10,1 C 73 % 1012,7 hPa 0,0 l/m 7,8 km/h (2 Bft) W-SW 0,00 h 0,026 mm 0,0 UV-I 0 W/m 5,4 C 9,1 C 11,3 km/h (2 Bft) 99,42 %
27.03.2016 22:00 9,6 C 75 % 1012,8 hPa 0,0 l/m 8,5 km/h (2 Bft) W-SW 0,00 h 0,025 mm 0,0 UV-I 0 W/m 5,4 C 8,2 C 12,2 km/h (2 Bft) 96,85 %
27.03.2016 23:00 8,8 C 79 % 1012,8 hPa 0,0 l/m 6,0 km/h (2 Bft) SW 0,00 h 0,026 mm 0,0 UV-I 0 W/m 5,3 C 8,6 C 8,3 km/h (2 Bft) 98,90 %
Min-Datum _ 27.03.16 24.03.16 23.03.16 - 22.03.16 - - - - - 24.03.16 26.03.16 22.03.16 26.03.16
_ Min-Zeit 04:02 13:42 14:40 - 19:07 - - - - - 14:52 08:28 19:07 00:02
Minimum _ -0,8 C 51 % 1005,3 hPa - 0,0 km/h (0 Bft) - - - - - -1,6 C -5,4 C 0,0 km/h (0 Bft) 9,09 %
Max-Datum _ 27.03.16 27.03.16 26.03.16 23.03.16 24.03.16 - 27.03.16 27.03.16 27.03.16 24.03.16 27.03.16 27.03.16 24.03.16 21.03.16
_ Max-Zeit 17:06 01:50 10:28 15:02 13:53 - 11:34 13:01 13:04 11:42 17:02 17:09 13:53 00:00
Maximum _ 13,9 C 98 % 1021,2 hPa 1,2 l/m 26,2 km/h
W-SW (4 Bft)
- 0,05 h 0,331 mm 3,6 UV-I 969 W/m 7,2 C 13,9 C 38,6 km/h
W-SW (5 Bft)
100,00 %
Durchschnitt _ 5,6 C 80 % 1013,3 hPa #8,6 l/m 6,8 km/h (2 Bft) W-SW #16:53 h #9,728 mm 1,2 UV-I 185 W/m 2,3 C 4,2 C 10,2 km/h (2 Bft) 98,56 %